createdAt,value
2017-07-25T00:01:04.247Z,1.90
2017-07-25T00:06:30.536Z,1.67
2017-07-25T00:11:56.852Z,1.50
2017-07-25T00:17:23.150Z,1.40
2017-07-25T00:22:49.426Z,1.47
2017-07-25T00:28:16.464Z,1.50
2017-07-25T00:33:42.769Z,1.60
2017-07-25T00:39:09.839Z,1.97
2017-07-25T00:44:36.138Z,1.60
2017-07-25T00:50:02.449Z,1.63
2017-07-25T00:55:28.795Z,1.60
2017-07-25T01:00:55.105Z,1.60
2017-07-25T01:06:21.382Z,1.80
2017-07-25T01:11:47.697Z,1.63
2017-07-25T01:17:14.720Z,1.80
2017-07-25T01:22:41.747Z,1.67
2017-07-25T01:28:08.799Z,1.83
2017-07-25T01:33:35.171Z,1.53
2017-07-25T01:39:01.497Z,1.70
2017-07-25T01:44:27.817Z,2.10
2017-07-25T01:49:54.126Z,1.80
2017-07-25T01:55:20.528Z,2.00
2017-07-25T02:00:46.846Z,1.50
2017-07-25T02:06:13.153Z,1.70
2017-07-25T02:11:39.413Z,1.87
2017-07-25T02:17:05.769Z,1.80
2017-07-25T02:22:32.052Z,1.90
2017-07-25T02:27:58.354Z,1.97
2017-07-25T02:33:25.423Z,1.53
2017-07-25T02:38:51.762Z,2.10
2017-07-25T02:44:18.054Z,1.47
2017-07-25T02:49:44.369Z,2.10
2017-07-25T02:55:10.689Z,1.53
2017-07-25T03:00:36.990Z,1.83
2017-07-25T03:06:04.483Z,1.93
2017-07-25T03:11:31.514Z,1.90
2017-07-25T03:16:57.797Z,1.80
2017-07-25T03:22:24.101Z,1.60
2017-07-25T03:27:50.558Z,1.67
2017-07-25T03:33:16.888Z,1.63
2017-07-25T03:38:43.929Z,1.40
2017-07-25T03:44:11.180Z,1.57
2017-07-25T03:49:37.479Z,1.30
2017-07-25T03:55:03.972Z,1.57
2017-07-25T04:00:30.274Z,1.87
2017-07-25T04:05:56.560Z,1.70
2017-07-25T04:11:22.834Z,1.47
2017-07-25T04:16:49.916Z,1.53
2017-07-25T04:22:16.204Z,1.73
2017-07-25T04:27:42.549Z,1.60
2017-07-25T04:33:08.873Z,1.90
2017-07-25T04:38:35.188Z,1.80
2017-07-25T04:44:01.478Z,1.50
2017-07-25T04:49:27.790Z,1.47
2017-07-25T04:54:54.136Z,1.67
2017-07-25T05:00:20.439Z,1.73
2017-07-25T05:05:46.763Z,1.97
2017-07-25T05:11:13.085Z,1.60
2017-07-25T05:16:39.369Z,1.20
2017-07-25T05:22:05.652Z,1.50
2017-07-25T05:27:31.940Z,1.37
2017-07-25T05:32:58.275Z,1.70
2017-07-25T05:38:24.559Z,1.47
2017-07-25T05:43:50.851Z,1.37
2017-07-25T05:49:17.465Z,1.53
2017-07-25T05:54:43.800Z,1.50
2017-07-25T06:00:10.104Z,1.20
2017-07-25T06:05:36.404Z,1.20
2017-07-25T06:11:03.470Z,1.00
2017-07-25T06:16:29.756Z,1.30
2017-07-25T06:21:56.050Z,1.23
2017-07-25T06:27:23.064Z,1.60
2017-07-25T06:32:49.362Z,1.50
2017-07-25T06:38:15.650Z,1.20
2017-07-25T06:43:41.966Z,1.30
2017-07-25T06:49:08.265Z,1.87
2017-07-25T06:54:34.571Z,1.67
2017-07-25T07:00:00.844Z,2.30
2017-07-25T07:05:27.141Z,1.97
2017-07-25T07:10:53.459Z,2.17
2017-07-25T07:16:19.749Z,2.10
2017-07-25T07:21:46.037Z,2.10
2017-07-25T07:27:13.082Z,1.90
2017-07-25T07:32:39.378Z,1.90
2017-07-25T07:38:06.418Z,2.10
2017-07-25T07:43:34.332Z,2.50
2017-07-25T07:49:00.636Z,2.60
2017-07-25T07:54:26.985Z,2.60
2017-07-25T07:59:54.023Z,3.10
2017-07-25T08:05:20.306Z,2.80
2017-07-25T08:10:46.609Z,3.50
2017-07-25T08:16:12.915Z,2.80
2017-07-25T08:21:39.195Z,3.00
2017-07-25T08:27:05.578Z,2.83
2017-07-25T08:32:31.869Z,2.50
2017-07-25T08:37:58.169Z,2.57
2017-07-25T08:43:24.436Z,2.20
2017-07-25T08:48:51.453Z,2.47
2017-07-25T08:54:18.139Z,2.10
2017-07-25T08:59:44.423Z,2.57
2017-07-25T09:05:10.726Z,2.20
2017-07-25T09:10:37.749Z,2.30
2017-07-25T09:16:04.041Z,2.10
2017-07-25T09:21:30.369Z,3.20
2017-07-25T09:26:56.632Z,2.50
2017-07-25T09:32:22.888Z,2.33
2017-07-25T09:37:49.164Z,2.23
2017-07-25T09:43:15.432Z,2.40
2017-07-25T09:48:42.477Z,1.80
2017-07-25T09:54:08.818Z,2.40
2017-07-25T09:59:35.112Z,2.90
2017-07-25T10:05:01.407Z,2.30
2017-07-25T10:10:27.689Z,2.10
2017-07-25T10:15:53.976Z,1.97
2017-07-25T10:21:20.276Z,2.63
2017-07-25T10:26:46.573Z,2.07
2017-07-25T10:32:12.889Z,1.83
2017-07-25T10:37:39.194Z,2.10
2017-07-25T10:43:05.522Z,1.90
2017-07-25T10:48:31.805Z,1.60
2017-07-25T10:53:59.298Z,2.00
2017-07-25T10:59:25.579Z,1.80
2017-07-25T11:04:51.892Z,1.50
2017-07-25T11:10:18.920Z,1.33
2017-07-25T11:15:45.969Z,1.30
2017-07-25T11:21:12.305Z,1.23
2017-07-25T11:26:38.585Z,1.47
2017-07-25T11:32:06.494Z,1.37
2017-07-25T11:37:32.779Z,1.27
2017-07-25T11:42:59.081Z,1.33
2017-07-25T11:48:25.363Z,1.20
2017-07-25T11:53:52.404Z,1.30
2017-07-25T11:59:19.458Z,1.27
2017-07-25T12:04:46.137Z,1.37
2017-07-25T12:10:12.425Z,1.20
2017-07-25T12:15:38.749Z,1.13
2017-07-25T12:21:17.300Z,1.20
2017-07-25T12:26:43.582Z,1.30
2017-07-25T12:32:09.864Z,1.33
2017-07-25T12:37:36.162Z,1.67
2017-07-25T12:43:02.465Z,1.63
2017-07-25T12:48:28.745Z,1.57
2017-07-25T12:53:55.045Z,1.43
2017-07-25T12:59:21.365Z,1.57
2017-07-25T13:04:47.658Z,1.30
2017-07-25T13:10:13.980Z,1.50
2017-07-25T13:15:40.263Z,1.83
2017-07-25T13:21:06.762Z,2.27
2017-07-25T13:26:33.061Z,2.70
2017-07-25T13:32:00.114Z,2.20
2017-07-25T13:37:26.414Z,2.40
2017-07-25T13:42:53.461Z,2.60
2017-07-25T13:48:19.744Z,2.83
2017-07-25T13:53:46.042Z,2.90
2017-07-25T13:59:12.328Z,2.13
2017-07-25T14:04:38.657Z,2.07
2017-07-25T14:10:04.952Z,1.90
2017-07-25T14:15:31.253Z,2.00
2017-07-25T14:20:57.542Z,2.10
2017-07-25T14:26:24.568Z,2.87
2017-07-25T14:31:51.602Z,3.07
2017-07-25T14:37:17.880Z,2.77
2017-07-25T14:42:44.162Z,3.37
2017-07-25T14:48:10.466Z,3.80
2017-07-25T14:53:36.774Z,3.37
2017-07-25T14:59:03.097Z,2.80
2017-07-25T15:04:29.419Z,2.43
2017-07-25T15:09:55.740Z,3.23
2017-07-25T15:15:22.065Z,3.37
2017-07-25T15:20:48.380Z,3.40
2017-07-25T15:26:14.654Z,4.00
2017-07-25T15:31:41.670Z,4.07
2017-07-25T15:37:07.936Z,3.50
2017-07-25T15:42:34.205Z,3.43
2017-07-25T15:48:00.494Z,3.17
2017-07-25T15:53:26.776Z,2.53
2017-07-25T15:58:53.072Z,1.77
2017-07-25T16:04:19.369Z,2.47
2017-07-25T16:09:46.419Z,3.00
2017-07-25T16:15:12.745Z,2.03
2017-07-25T16:20:39.037Z,1.50
2017-07-25T16:26:06.065Z,1.47
2017-07-25T16:31:33.168Z,1.20
2017-07-25T16:36:59.465Z,2.73
2017-07-25T16:42:25.786Z,3.00
2017-07-25T16:47:52.117Z,3.40
2017-07-25T16:53:18.392Z,4.60
2017-07-25T16:58:44.685Z,3.17
2017-07-25T17:04:11.746Z,3.37
2017-07-25T17:09:38.081Z,3.70
2017-07-25T17:15:04.336Z,3.90
2017-07-25T17:20:31.436Z,4.23
2017-07-25T17:25:57.733Z,4.07
2017-07-25T17:31:24.090Z,3.90
2017-07-25T17:36:51.247Z,4.20
2017-07-25T17:42:17.892Z,4.20
2017-07-25T17:47:44.158Z,5.27
2017-07-25T17:53:10.597Z,4.73
2017-07-25T18:04:10.088Z,2.67
2017-07-25T18:09:37.185Z,3.13
2017-07-25T18:15:03.607Z,2.10
2017-07-25T18:20:29.889Z,2.53
2017-07-25T18:25:56.245Z,2.13
2017-07-25T18:31:22.628Z,2.23
2017-07-25T18:36:48.916Z,1.83
2017-07-25T18:42:15.531Z,1.60
2017-07-25T18:47:41.801Z,1.50
2017-07-25T18:53:08.138Z,1.60
2017-07-25T18:58:35.238Z,1.87
2017-07-25T19:04:01.564Z,1.80
2017-07-25T19:09:27.963Z,2.17
2017-07-25T19:14:54.258Z,1.90
2017-07-25T19:20:20.630Z,2.00
2017-07-25T19:25:47.670Z,1.70
2017-07-25T19:31:14.029Z,2.13
2017-07-25T19:36:40.338Z,1.27
2017-07-25T19:42:06.697Z,1.80
2017-07-25T19:47:33.121Z,1.97
2017-07-25T19:53:00.174Z,1.80
2017-07-25T19:58:26.541Z,2.23
2017-07-25T20:03:52.938Z,2.07
2017-07-25T20:09:19.278Z,2.60
2017-07-25T20:14:45.587Z,2.30
2017-07-25T20:20:11.900Z,2.37
2017-07-25T20:25:38.227Z,2.27
2017-07-25T20:31:04.533Z,2.93
2017-07-25T20:36:30.888Z,2.10
2017-07-25T20:41:57.190Z,2.40
2017-07-25T20:47:24.213Z,2.37
2017-07-25T20:52:51.304Z,2.87
2017-07-25T20:58:18.385Z,3.13
2017-07-25T21:03:45.406Z,3.10
2017-07-25T21:09:11.705Z,3.20
2017-07-25T21:14:38.019Z,3.10
2017-07-25T21:20:04.317Z,3.40
2017-07-25T21:25:30.659Z,3.13
2017-07-25T21:30:56.951Z,3.50
2017-07-25T21:36:23.272Z,2.80
2017-07-25T21:41:49.614Z,2.70
2017-07-25T21:47:16.014Z,3.30
2017-07-25T21:52:42.407Z,2.50
2017-07-25T21:58:09.856Z,2.60
2017-07-25T22:03:57.301Z,2.77
2017-07-25T22:09:23.630Z,2.57
2017-07-25T22:14:49.993Z,3.10
2017-07-25T22:20:16.341Z,3.00
2017-07-25T22:25:42.635Z,3.13
2017-07-25T22:31:08.953Z,3.50
2017-07-25T22:36:35.431Z,2.63
2017-07-25T22:42:01.746Z,3.20
2017-07-25T22:47:28.037Z,3.20
2017-07-25T22:52:54.326Z,2.90
2017-07-25T22:58:20.599Z,3.50
2017-07-25T23:03:46.922Z,2.53
2017-07-25T23:09:13.196Z,3.30
2017-07-25T23:14:39.478Z,2.50
2017-07-25T23:20:05.772Z,2.40
2017-07-25T23:25:32.043Z,2.37
2017-07-25T23:30:58.434Z,3.00
2017-07-25T23:36:25.454Z,2.07
2017-07-25T23:41:51.796Z,2.63
2017-07-25T23:47:18.838Z,2.50
2017-07-25T23:52:45.139Z,2.33
2017-07-25T23:58:12.167Z,1.90
